sensor_id;sensor_type;location;lat;lon;timestamp;P1;durP1;ratioP1;P2;durP2;ratioP2
72105;SDS011;59975;47.646;18.318;2022-08-20T00:01:16;13.25;;;8.35;;
72105;SDS011;59975;47.646;18.318;2022-08-20T00:03:42;15.73;;;7.83;;
72105;SDS011;59975;47.646;18.318;2022-08-20T00:16:14;18.75;;;8.75;;
72105;SDS011;59975;47.646;18.318;2022-08-20T00:18:41;15.67;;;8.80;;
72105;SDS011;59975;47.646;18.318;2022-08-20T00:21:08;15.13;;;8.57;;
72105;SDS011;59975;47.646;18.318;2022-08-20T00:23:37;22.00;;;9.85;;
72105;SDS011;59975;47.646;18.318;2022-08-20T00:26:05;14.98;;;9.85;;
72105;SDS011;59975;47.646;18.318;2022-08-20T00:28:31;21.15;;;10.52;;
72105;SDS011;59975;47.646;18.318;2022-08-20T00:30:57;19.60;;;9.33;;
72105;SDS011;59975;47.646;18.318;2022-08-20T00:33:24;19.08;;;10.27;;
72105;SDS011;59975;47.646;18.318;2022-08-20T00:35:53;17.73;;;10.23;;
72105;SDS011;59975;47.646;18.318;2022-08-20T00:38:20;17.17;;;10.47;;
72105;SDS011;59975;47.646;18.318;2022-08-20T00:40:49;19.38;;;10.48;;
72105;SDS011;59975;47.646;18.318;2022-08-20T00:46:10;19.50;;;9.32;;
72105;SDS011;59975;47.646;18.318;2022-08-20T00:48:40;17.70;;;9.13;;
72105;SDS011;59975;47.646;18.318;2022-08-20T00:51:14;17.37;;;9.70;;
72105;SDS011;59975;47.646;18.318;2022-08-20T00:57:09;20.65;;;10.02;;
72105;SDS011;59975;47.646;18.318;2022-08-20T00:59:43;17.85;;;10.38;;
72105;SDS011;59975;47.646;18.318;2022-08-20T01:05:32;19.67;;;10.33;;
72105;SDS011;59975;47.646;18.318;2022-08-20T01:07:58;21.23;;;10.80;;
72105;SDS011;59975;47.646;18.318;2022-08-20T01:13:47;19.40;;;10.60;;
72105;SDS011;59975;47.646;18.318;2022-08-20T01:19:38;19.20;;;10.07;;
72105;SDS011;59975;47.646;18.318;2022-08-20T01:25:29;23.10;;;11.15;;
72105;SDS011;59975;47.646;18.318;2022-08-20T01:31:28;17.42;;;11.60;;
72105;SDS011;59975;47.646;18.318;2022-08-20T01:37:18;19.27;;;12.13;;
72105;SDS011;59975;47.646;18.318;2022-08-20T01:50:00;23.60;;;12.90;;
72105;SDS011;59975;47.646;18.318;2022-08-20T01:55:51;24.63;;;12.98;;
72105;SDS011;59975;47.646;18.318;2022-08-20T02:01:38;24.65;;;14.77;;
72105;SDS011;59975;47.646;18.318;2022-08-20T02:07:26;23.08;;;14.13;;
72105;SDS011;59975;47.646;18.318;2022-08-20T02:13:15;19.70;;;12.77;;
72105;SDS011;59975;47.646;18.318;2022-08-20T02:15:41;19.25;;;12.32;;
72105;SDS011;59975;47.646;18.318;2022-08-20T02:18:09;17.55;;;11.40;;
72105;SDS011;59975;47.646;18.318;2022-08-20T02:40:36;19.15;;;12.38;;
72105;SDS011;59975;47.646;18.318;2022-08-20T02:55:54;21.10;;;12.40;;
72105;SDS011;59975;47.646;18.318;2022-08-20T03:01:41;24.20;;;12.88;;
72105;SDS011;59975;47.646;18.318;2022-08-20T03:04:06;21.40;;;13.07;;
72105;SDS011;59975;47.646;18.318;2022-08-20T03:10:00;21.70;;;12.57;;
72105;SDS011;59975;47.646;18.318;2022-08-20T03:12:27;20.17;;;12.27;;
72105;SDS011;59975;47.646;18.318;2022-08-20T03:14:53;24.38;;;13.38;;
72105;SDS011;59975;47.646;18.318;2022-08-20T03:24:03;21.73;;;14.15;;
72105;SDS011;59975;47.646;18.318;2022-08-20T03:29:50;24.08;;;13.45;;
72105;SDS011;59975;47.646;18.318;2022-08-20T03:35:37;24.80;;;14.82;;
72105;SDS011;59975;47.646;18.318;2022-08-20T03:54:15;25.75;;;15.25;;
72105;SDS011;59975;47.646;18.318;2022-08-20T04:00:03;21.83;;;15.23;;
72105;SDS011;59975;47.646;18.318;2022-08-20T04:05:52;27.60;;;16.42;;
72105;SDS011;59975;47.646;18.318;2022-08-20T04:11:40;30.90;;;17.17;;
72105;SDS011;59975;47.646;18.318;2022-08-20T04:17:27;27.33;;;16.48;;
72105;SDS011;59975;47.646;18.318;2022-08-20T04:19:55;27.30;;;17.23;;
72105;SDS011;59975;47.646;18.318;2022-08-20T04:25:42;25.55;;;16.20;;
72105;SDS011;59975;47.646;18.318;2022-08-20T04:31:31;28.77;;;15.98;;
72105;SDS011;59975;47.646;18.318;2022-08-20T04:37:21;22.80;;;14.63;;
72105;SDS011;59975;47.646;18.318;2022-08-20T04:43:09;25.03;;;14.63;;
72105;SDS011;59975;47.646;18.318;2022-08-20T04:48:56;26.45;;;14.70;;
72105;SDS011;59975;47.646;18.318;2022-08-20T04:51:23;27.23;;;15.27;;
72105;SDS011;59975;47.646;18.318;2022-08-20T04:53:50;24.00;;;14.50;;
72105;SDS011;59975;47.646;18.318;2022-08-20T04:59:39;22.33;;;13.87;;
72105;SDS011;59975;47.646;18.318;2022-08-20T05:05:26;23.00;;;12.47;;
72105;SDS011;59975;47.646;18.318;2022-08-20T05:11:14;20.10;;;12.43;;
72105;SDS011;59975;47.646;18.318;2022-08-20T05:17:03;18.67;;;9.45;;
72105;SDS011;59975;47.646;18.318;2022-08-20T05:22:52;19.55;;;9.02;;
72105;SDS011;59975;47.646;18.318;2022-08-20T05:48:20;26.08;;;16.83;;
72105;SDS011;59975;47.646;18.318;2022-08-20T05:50:49;25.87;;;17.10;;
72105;SDS011;59975;47.646;18.318;2022-08-20T05:53:17;26.52;;;17.08;;
72105;SDS011;59975;47.646;18.318;2022-08-20T05:59:06;30.10;;;17.92;;
72105;SDS011;59975;47.646;18.318;2022-08-20T06:01:34;31.88;;;17.95;;
72105;SDS011;59975;47.646;18.318;2022-08-20T06:04:03;28.90;;;18.50;;
72105;SDS011;59975;47.646;18.318;2022-08-20T06:06:50;30.20;;;20.40;;
72105;SDS011;59975;47.646;18.318;2022-08-20T06:09:18;33.05;;;20.58;;
72105;SDS011;59975;47.646;18.318;2022-08-20T06:11:46;32.28;;;21.02;;
72105;SDS011;59975;47.646;18.318;2022-08-20T06:14:12;30.42;;;20.45;;
72105;SDS011;59975;47.646;18.318;2022-08-20T06:23:24;32.58;;;18.60;;
72105;SDS011;59975;47.646;18.318;2022-08-20T06:25:50;34.60;;;18.50;;
72105;SDS011;59975;47.646;18.318;2022-08-20T06:31:40;25.65;;;17.33;;
72105;SDS011;59975;47.646;18.318;2022-08-20T06:37:28;31.83;;;17.92;;
72105;SDS011;59975;47.646;18.318;2022-08-20T06:39:58;28.33;;;18.17;;
72105;SDS011;59975;47.646;18.318;2022-08-20T06:45:48;28.60;;;18.98;;
72105;SDS011;59975;47.646;18.318;2022-08-20T06:48:15;33.20;;;20.42;;
72105;SDS011;59975;47.646;18.318;2022-08-20T06:50:43;33.47;;;21.08;;
72105;SDS011;59975;47.646;18.318;2022-08-20T07:03:16;34.50;;;21.83;;
72105;SDS011;59975;47.646;18.318;2022-08-20T07:05:43;33.30;;;20.00;;
72105;SDS011;59975;47.646;18.318;2022-08-20T07:11:32;35.78;;;19.35;;
72105;SDS011;59975;47.646;18.318;2022-08-20T07:14:00;33.25;;;20.48;;
72105;SDS011;59975;47.646;18.318;2022-08-20T07:16:29;32.78;;;18.83;;
72105;SDS011;59975;47.646;18.318;2022-08-20T07:18:57;35.25;;;19.73;;
72105;SDS011;59975;47.646;18.318;2022-08-20T07:28:10;33.58;;;19.27;;
72105;SDS011;59975;47.646;18.318;2022-08-20T07:30:38;33.40;;;19.75;;
72105;SDS011;59975;47.646;18.318;2022-08-20T07:36:46;30.47;;;18.37;;
72105;SDS011;59975;47.646;18.318;2022-08-20T07:45:57;28.65;;;17.65;;
72105;SDS011;59975;47.646;18.318;2022-08-20T07:58:31;29.60;;;18.90;;
72105;SDS011;59975;47.646;18.318;2022-08-20T08:07:44;32.70;;;18.37;;
72105;SDS011;59975;47.646;18.318;2022-08-20T08:10:12;33.65;;;18.15;;
72105;SDS011;59975;47.646;18.318;2022-08-20T08:19:26;25.05;;;16.58;;
72105;SDS011;59975;47.646;18.318;2022-08-20T08:22:05;28.27;;;17.43;;
72105;SDS011;59975;47.646;18.318;2022-08-20T08:24:38;27.55;;;18.27;;
72105;SDS011;59975;47.646;18.318;2022-08-20T08:27:05;36.35;;;19.17;;
72105;SDS011;59975;47.646;18.318;2022-08-20T08:29:33;33.63;;;19.10;;
72105;SDS011;59975;47.646;18.318;2022-08-20T08:32:02;29.00;;;17.92;;
72105;SDS011;59975;47.646;18.318;2022-08-20T08:34:32;29.47;;;17.47;;
72105;SDS011;59975;47.646;18.318;2022-08-20T08:37:01;31.70;;;19.77;;
72105;SDS011;59975;47.646;18.318;2022-08-20T08:39:27;27.27;;;18.48;;
72105;SDS011;59975;47.646;18.318;2022-08-20T08:41:56;29.65;;;18.60;;
72105;SDS011;59975;47.646;18.318;2022-08-20T08:44:25;31.70;;;19.45;;
72105;SDS011;59975;47.646;18.318;2022-08-20T08:53:48;32.63;;;19.35;;
72105;SDS011;59975;47.646;18.318;2022-08-20T08:56:27;34.80;;;20.63;;
72105;SDS011;59975;47.646;18.318;2022-08-20T08:58:59;40.33;;;21.65;;
72105;SDS011;59975;47.646;18.318;2022-08-20T09:01:30;43.93;;;24.00;;
72105;SDS011;59975;47.646;18.318;2022-08-20T09:03:57;41.72;;;23.65;;
72105;SDS011;59975;47.646;18.318;2022-08-20T09:06:23;46.53;;;25.88;;
72105;SDS011;59975;47.646;18.318;2022-08-20T09:08:55;51.15;;;24.90;;
72105;SDS011;59975;47.646;18.318;2022-08-20T09:11:26;41.80;;;24.60;;
72105;SDS011;59975;47.646;18.318;2022-08-20T09:13:54;43.60;;;23.87;;
72105;SDS011;59975;47.646;18.318;2022-08-20T09:19:43;42.15;;;23.13;;
72105;SDS011;59975;47.646;18.318;2022-08-20T09:22:10;38.75;;;22.80;;
72105;SDS011;59975;47.646;18.318;2022-08-20T09:24:43;45.33;;;25.25;;
72105;SDS011;59975;47.646;18.318;2022-08-20T09:30:33;45.03;;;21.35;;
72105;SDS011;59975;47.646;18.318;2022-08-20T09:32:59;42.28;;;22.40;;
72105;SDS011;59975;47.646;18.318;2022-08-20T09:35:25;34.80;;;19.60;;
72105;SDS011;59975;47.646;18.318;2022-08-20T09:37:51;39.08;;;21.27;;
72105;SDS011;59975;47.646;18.318;2022-08-20T09:50:24;34.30;;;17.77;;
72105;SDS011;59975;47.646;18.318;2022-08-20T09:52:52;30.60;;;18.35;;
72105;SDS011;59975;47.646;18.318;2022-08-20T10:14:26;24.13;;;13.97;;
72105;SDS011;59975;47.646;18.318;2022-08-20T10:16:56;24.27;;;13.15;;
72105;SDS011;59975;47.646;18.318;2022-08-20T10:19:23;31.97;;;14.53;;
72105;SDS011;59975;47.646;18.318;2022-08-20T10:21:49;26.35;;;13.95;;
72105;SDS011;59975;47.646;18.318;2022-08-20T10:27:39;19.60;;;12.55;;
72105;SDS011;59975;47.646;18.318;2022-08-20T10:33:27;22.67;;;11.97;;
72105;SDS011;59975;47.646;18.318;2022-08-20T10:35:53;23.88;;;12.15;;
72105;SDS011;59975;47.646;18.318;2022-08-20T10:38:19;26.70;;;14.00;;
72105;SDS011;59975;47.646;18.318;2022-08-20T10:40:46;25.97;;;13.50;;
72105;SDS011;59975;47.646;18.318;2022-08-20T10:43:11;24.13;;;13.88;;
72105;SDS011;59975;47.646;18.318;2022-08-20T10:45:37;30.73;;;13.83;;
72105;SDS011;59975;47.646;18.318;2022-08-20T10:58:10;19.35;;;13.25;;
72105;SDS011;59975;47.646;18.318;2022-08-20T11:00:38;21.97;;;13.13;;
72105;SDS011;59975;47.646;18.318;2022-08-20T11:06:28;20.08;;;10.77;;
72105;SDS011;59975;47.646;18.318;2022-08-20T11:08:55;17.27;;;10.32;;
72105;SDS011;59975;47.646;18.318;2022-08-20T11:11:21;19.50;;;10.07;;
72105;SDS011;59975;47.646;18.318;2022-08-20T11:13:49;17.43;;;10.00;;
72105;SDS011;59975;47.646;18.318;2022-08-20T11:16:15;21.90;;;11.82;;
72105;SDS011;59975;47.646;18.318;2022-08-20T11:18:42;15.18;;;7.90;;
72105;SDS011;59975;47.646;18.318;2022-08-20T11:21:09;14.82;;;8.27;;
72105;SDS011;59975;47.646;18.318;2022-08-20T11:23:35;14.15;;;8.63;;
72105;SDS011;59975;47.646;18.318;2022-08-20T11:26:00;20.43;;;9.10;;
72105;SDS011;59975;47.646;18.318;2022-08-20T11:28:26;14.57;;;8.27;;
72105;SDS011;59975;47.646;18.318;2022-08-20T11:34:17;16.23;;;7.50;;
72105;SDS011;59975;47.646;18.318;2022-08-20T11:36:43;13.17;;;8.03;;
72105;SDS011;59975;47.646;18.318;2022-08-20T11:39:10;17.35;;;7.50;;
72105;SDS011;59975;47.646;18.318;2022-08-20T11:41:36;14.20;;;7.50;;
72105;SDS011;59975;47.646;18.318;2022-08-20T11:44:02;13.53;;;7.00;;
72105;SDS011;59975;47.646;18.318;2022-08-20T11:46:29;18.58;;;8.15;;
72105;SDS011;59975;47.646;18.318;2022-08-20T11:48:58;18.08;;;8.93;;
72105;SDS011;59975;47.646;18.318;2022-08-20T11:51:25;17.48;;;8.48;;
72105;SDS011;59975;47.646;18.318;2022-08-20T11:53:52;14.77;;;7.60;;
72105;SDS011;59975;47.646;18.318;2022-08-20T11:56:20;14.48;;;7.65;;
72105;SDS011;59975;47.646;18.318;2022-08-20T11:58:46;13.55;;;7.30;;
72105;SDS011;59975;47.646;18.318;2022-08-20T12:01:12;16.00;;;7.32;;
72105;SDS011;59975;47.646;18.318;2022-08-20T12:03:40;14.60;;;7.82;;
72105;SDS011;59975;47.646;18.318;2022-08-20T12:06:07;12.60;;;6.43;;
72105;SDS011;59975;47.646;18.318;2022-08-20T12:08:34;10.48;;;6.18;;
72105;SDS011;59975;47.646;18.318;2022-08-20T12:11:01;9.65;;;4.90;;
72105;SDS011;59975;47.646;18.318;2022-08-20T12:13:29;11.20;;;5.80;;
72105;SDS011;59975;47.646;18.318;2022-08-20T12:19:18;13.23;;;4.30;;
72105;SDS011;59975;47.646;18.318;2022-08-20T12:25:07;10.27;;;4.43;;
72105;SDS011;59975;47.646;18.318;2022-08-20T12:27:35;9.38;;;4.28;;
72105;SDS011;59975;47.646;18.318;2022-08-20T12:46:32;14.13;;;4.78;;
72105;SDS011;59975;47.646;18.318;2022-08-20T12:55:42;11.87;;;5.00;;
72105;SDS011;59975;47.646;18.318;2022-08-20T13:01:30;9.90;;;4.03;;
72105;SDS011;59975;47.646;18.318;2022-08-20T13:10:41;8.40;;;3.73;;
72105;SDS011;59975;47.646;18.318;2022-08-20T13:13:11;8.40;;;3.83;;
72105;SDS011;59975;47.646;18.318;2022-08-20T13:15:39;7.15;;;2.97;;
72105;SDS011;59975;47.646;18.318;2022-08-20T13:18:06;9.63;;;3.30;;
72105;SDS011;59975;47.646;18.318;2022-08-20T13:20:33;11.05;;;3.30;;
72105;SDS011;59975;47.646;18.318;2022-08-20T13:23:01;11.03;;;3.63;;
72105;SDS011;59975;47.646;18.318;2022-08-20T13:25:28;7.07;;;3.25;;
72105;SDS011;59975;47.646;18.318;2022-08-20T13:27:56;11.25;;;4.13;;
72105;SDS011;59975;47.646;18.318;2022-08-20T13:30:26;10.05;;;3.22;;
72105;SDS011;59975;47.646;18.318;2022-08-20T13:32:53;10.03;;;4.70;;
72105;SDS011;59975;47.646;18.318;2022-08-20T13:35:21;13.52;;;4.18;;
72105;SDS011;59975;47.646;18.318;2022-08-20T13:37:46;13.43;;;3.40;;
72105;SDS011;59975;47.646;18.318;2022-08-20T13:40:15;9.02;;;4.50;;
72105;SDS011;59975;47.646;18.318;2022-08-20T13:42:41;10.53;;;3.63;;
72105;SDS011;59975;47.646;18.318;2022-08-20T13:45:06;7.93;;;3.45;;
72105;SDS011;59975;47.646;18.318;2022-08-20T13:50:55;10.50;;;4.47;;
72105;SDS011;59975;47.646;18.318;2022-08-20T13:53:20;7.63;;;3.75;;
72105;SDS011;59975;47.646;18.318;2022-08-20T13:55:46;8.77;;;3.50;;
72105;SDS011;59975;47.646;18.318;2022-08-20T13:58:12;15.05;;;3.83;;
72105;SDS011;59975;47.646;18.318;2022-08-20T14:00:38;9.70;;;3.70;;
72105;SDS011;59975;47.646;18.318;2022-08-20T14:03:06;5.85;;;3.22;;
72105;SDS011;59975;47.646;18.318;2022-08-20T14:05:33;9.07;;;4.40;;
72105;SDS011;59975;47.646;18.318;2022-08-20T14:10:50;7.63;;;3.55;;
72105;SDS011;59975;47.646;18.318;2022-08-20T14:13:18;10.60;;;3.55;;
72105;SDS011;59975;47.646;18.318;2022-08-20T14:15:45;13.93;;;4.20;;
72105;SDS011;59975;47.646;18.318;2022-08-20T14:18:13;9.40;;;3.73;;
72105;SDS011;59975;47.646;18.318;2022-08-20T14:20:40;11.70;;;3.92;;
72105;SDS011;59975;47.646;18.318;2022-08-20T14:23:07;9.73;;;3.60;;
72105;SDS011;59975;47.646;18.318;2022-08-20T14:25:34;11.45;;;3.78;;
72105;SDS011;59975;47.646;18.318;2022-08-20T14:28:21;11.38;;;3.67;;
72105;SDS011;59975;47.646;18.318;2022-08-20T14:30:48;8.20;;;3.80;;
72105;SDS011;59975;47.646;18.318;2022-08-20T14:33:15;10.50;;;3.90;;
72105;SDS011;59975;47.646;18.318;2022-08-20T14:35:42;10.05;;;4.57;;
72105;SDS011;59975;47.646;18.318;2022-08-20T14:38:08;8.60;;;4.00;;
72105;SDS011;59975;47.646;18.318;2022-08-20T14:40:35;11.10;;;4.15;;
72105;SDS011;59975;47.646;18.318;2022-08-20T14:43:00;9.83;;;4.30;;
72105;SDS011;59975;47.646;18.318;2022-08-20T14:45:28;15.30;;;4.95;;
72105;SDS011;59975;47.646;18.318;2022-08-20T14:47:55;10.43;;;4.40;;
72105;SDS011;59975;47.646;18.318;2022-08-20T14:50:31;10.20;;;5.10;;
72105;SDS011;59975;47.646;18.318;2022-08-20T14:52:59;9.48;;;5.00;;
72105;SDS011;59975;47.646;18.318;2022-08-20T14:58:47;13.55;;;5.93;;
72105;SDS011;59975;47.646;18.318;2022-08-20T15:01:13;8.83;;;5.00;;
72105;SDS011;59975;47.646;18.318;2022-08-20T15:03:38;15.02;;;5.38;;
72105;SDS011;59975;47.646;18.318;2022-08-20T15:09:31;11.95;;;5.10;;
72105;SDS011;59975;47.646;18.318;2022-08-20T15:11:58;10.67;;;4.77;;
72105;SDS011;59975;47.646;18.318;2022-08-20T15:14:23;10.05;;;4.90;;
72105;SDS011;59975;47.646;18.318;2022-08-20T15:16:49;10.80;;;5.18;;
72105;SDS011;59975;47.646;18.318;2022-08-20T15:19:16;10.57;;;4.47;;
72105;SDS011;59975;47.646;18.318;2022-08-20T15:21:42;8.95;;;4.30;;
72105;SDS011;59975;47.646;18.318;2022-08-20T15:24:07;11.07;;;5.30;;
72105;SDS011;59975;47.646;18.318;2022-08-20T15:26:33;13.20;;;4.73;;
72105;SDS011;59975;47.646;18.318;2022-08-20T15:28:59;9.43;;;4.82;;
72105;SDS011;59975;47.646;18.318;2022-08-20T15:34:48;10.73;;;4.90;;
72105;SDS011;59975;47.646;18.318;2022-08-20T15:40:36;11.30;;;5.53;;
72105;SDS011;59975;47.646;18.318;2022-08-20T15:43:03;12.73;;;5.70;;
72105;SDS011;59975;47.646;18.318;2022-08-20T15:45:28;13.77;;;6.68;;
72105;SDS011;59975;47.646;18.318;2022-08-20T15:48:16;18.57;;;5.63;;
72105;SDS011;59975;47.646;18.318;2022-08-20T16:18:19;11.13;;;6.03;;
72105;SDS011;59975;47.646;18.318;2022-08-20T16:24:11;17.70;;;6.38;;
72105;SDS011;59975;47.646;18.318;2022-08-20T16:27:11;13.50;;;5.90;;
72105;SDS011;59975;47.646;18.318;2022-08-20T16:52:59;12.88;;;6.13;;
72105;SDS011;59975;47.646;18.318;2022-08-20T16:58:47;13.27;;;6.35;;
72105;SDS011;59975;47.646;18.318;2022-08-20T17:04:46;10.45;;;5.53;;
72105;SDS011;59975;47.646;18.318;2022-08-20T17:20:43;13.73;;;7.40;;
72105;SDS011;59975;47.646;18.318;2022-08-20T17:23:10;14.35;;;6.97;;
72105;SDS011;59975;47.646;18.318;2022-08-20T17:29:14;13.73;;;6.82;;
72105;SDS011;59975;47.646;18.318;2022-08-20T17:35:04;10.38;;;7.03;;
72105;SDS011;59975;47.646;18.318;2022-08-20T17:37:33;13.45;;;7.57;;
72105;SDS011;59975;47.646;18.318;2022-08-20T17:40:41;14.53;;;7.20;;
72105;SDS011;59975;47.646;18.318;2022-08-20T18:24:31;18.42;;;8.73;;
72105;SDS011;59975;47.646;18.318;2022-08-20T18:27:01;16.38;;;8.82;;
72105;SDS011;59975;47.646;18.318;2022-08-20T18:29:33;14.63;;;8.50;;
72105;SDS011;59975;47.646;18.318;2022-08-20T18:32:04;18.83;;;8.35;;
72105;SDS011;59975;47.646;18.318;2022-08-20T18:34:42;18.30;;;8.90;;
72105;SDS011;59975;47.646;18.318;2022-08-20T18:47:20;18.50;;;8.60;;
72105;SDS011;59975;47.646;18.318;2022-08-20T18:53:32;17.95;;;9.05;;
72105;SDS011;59975;47.646;18.318;2022-08-20T19:22:37;5.55;;;3.58;;
72105;SDS011;59975;47.646;18.318;2022-08-20T19:25:04;7.47;;;4.38;;
72105;SDS011;59975;47.646;18.318;2022-08-20T19:27:32;7.72;;;3.95;;
72105;SDS011;59975;47.646;18.318;2022-08-20T19:29:58;6.77;;;4.53;;
72105;SDS011;59975;47.646;18.318;2022-08-20T19:35:47;6.15;;;3.30;;
72105;SDS011;59975;47.646;18.318;2022-08-20T19:38:14;7.70;;;3.77;;
72105;SDS011;59975;47.646;18.318;2022-08-20T19:44:03;8.27;;;3.63;;
72105;SDS011;59975;47.646;18.318;2022-08-20T19:46:34;6.85;;;3.80;;
72105;SDS011;59975;47.646;18.318;2022-08-20T19:49:09;6.47;;;3.53;;
72105;SDS011;59975;47.646;18.318;2022-08-20T20:11:47;7.68;;;4.25;;
72105;SDS011;59975;47.646;18.318;2022-08-20T20:14:16;7.80;;;4.13;;
72105;SDS011;59975;47.646;18.318;2022-08-20T20:16:48;7.25;;;4.20;;
72105;SDS011;59975;47.646;18.318;2022-08-20T20:19:17;8.23;;;4.18;;
72105;SDS011;59975;47.646;18.318;2022-08-20T20:21:45;7.10;;;4.50;;
72105;SDS011;59975;47.646;18.318;2022-08-20T20:24:23;7.70;;;4.53;;
72105;SDS011;59975;47.646;18.318;2022-08-20T20:30:14;9.80;;;5.18;;
72105;SDS011;59975;47.646;18.318;2022-08-20T20:32:48;10.48;;;5.43;;
72105;SDS011;59975;47.646;18.318;2022-08-20T20:52:05;7.45;;;4.72;;
72105;SDS011;59975;47.646;18.318;2022-08-20T20:54:37;8.27;;;4.55;;
72105;SDS011;59975;47.646;18.318;2022-08-20T21:10:24;7.53;;;4.47;;
72105;SDS011;59975;47.646;18.318;2022-08-20T21:16:15;6.75;;;4.00;;
72105;SDS011;59975;47.646;18.318;2022-08-20T21:18:40;4.70;;;3.42;;
72105;SDS011;59975;47.646;18.318;2022-08-20T21:21:07;4.90;;;3.40;;
72105;SDS011;59975;47.646;18.318;2022-08-20T21:23:34;5.22;;;3.80;;
72105;SDS011;59975;47.646;18.318;2022-08-20T21:26:01;4.57;;;3.40;;
72105;SDS011;59975;47.646;18.318;2022-08-20T21:28:29;3.85;;;2.75;;
72105;SDS011;59975;47.646;18.318;2022-08-20T21:30:58;4.82;;;3.05;;
72105;SDS011;59975;47.646;18.318;2022-08-20T21:33:26;4.53;;;2.77;;
72105;SDS011;59975;47.646;18.318;2022-08-20T21:35:52;7.05;;;2.95;;
72105;SDS011;59975;47.646;18.318;2022-08-20T21:38:18;5.57;;;2.65;;
72105;SDS011;59975;47.646;18.318;2022-08-20T21:40:44;3.53;;;2.33;;
72105;SDS011;59975;47.646;18.318;2022-08-20T21:43:11;4.27;;;2.80;;
72105;SDS011;59975;47.646;18.318;2022-08-20T21:45:37;5.18;;;2.88;;
72105;SDS011;59975;47.646;18.318;2022-08-20T21:48:03;3.58;;;2.67;;
72105;SDS011;59975;47.646;18.318;2022-08-20T21:50:31;5.40;;;2.50;;
72105;SDS011;59975;47.646;18.318;2022-08-20T21:56:19;3.75;;;2.47;;
72105;SDS011;59975;47.646;18.318;2022-08-20T21:58:44;3.83;;;2.70;;
72105;SDS011;59975;47.646;18.318;2022-08-20T22:01:12;3.50;;;2.30;;
72105;SDS011;59975;47.646;18.318;2022-08-20T22:03:40;4.40;;;2.60;;
72105;SDS011;59975;47.646;18.318;2022-08-20T22:06:07;4.88;;;2.70;;
72105;SDS011;59975;47.646;18.318;2022-08-20T22:08:35;4.38;;;2.78;;
72105;SDS011;59975;47.646;18.318;2022-08-20T22:11:02;4.05;;;2.70;;
72105;SDS011;59975;47.646;18.318;2022-08-20T22:13:31;4.53;;;2.80;;
72105;SDS011;59975;47.646;18.318;2022-08-20T22:15:58;4.30;;;3.00;;
72105;SDS011;59975;47.646;18.318;2022-08-20T22:18:26;4.97;;;2.83;;
72105;SDS011;59975;47.646;18.318;2022-08-20T22:20:52;4.20;;;2.58;;
72105;SDS011;59975;47.646;18.318;2022-08-20T22:23:18;3.60;;;2.42;;
72105;SDS011;59975;47.646;18.318;2022-08-20T22:25:45;5.13;;;2.50;;
72105;SDS011;59975;47.646;18.318;2022-08-20T22:31:35;4.13;;;2.47;;
72105;SDS011;59975;47.646;18.318;2022-08-20T22:34:04;4.82;;;2.50;;
72105;SDS011;59975;47.646;18.318;2022-08-20T22:36:30;3.78;;;2.80;;
72105;SDS011;59975;47.646;18.318;2022-08-20T22:38:58;4.05;;;2.50;;
72105;SDS011;59975;47.646;18.318;2022-08-20T22:41:25;4.00;;;2.33;;
72105;SDS011;59975;47.646;18.318;2022-08-20T22:47:12;5.47;;;2.67;;
72105;SDS011;59975;47.646;18.318;2022-08-20T22:49:39;3.38;;;2.38;;
72105;SDS011;59975;47.646;18.318;2022-08-20T22:52:07;5.47;;;2.40;;
72105;SDS011;59975;47.646;18.318;2022-08-20T22:54:33;5.80;;;2.60;;
72105;SDS011;59975;47.646;18.318;2022-08-20T22:57:00;3.88;;;2.63;;
72105;SDS011;59975;47.646;18.318;2022-08-20T22:59:27;5.15;;;2.55;;
72105;SDS011;59975;47.646;18.318;2022-08-20T23:05:17;2.90;;;1.92;;
72105;SDS011;59975;47.646;18.318;2022-08-20T23:07:47;3.63;;;2.37;;
72105;SDS011;59975;47.646;18.318;2022-08-20T23:10:14;2.65;;;1.98;;
72105;SDS011;59975;47.646;18.318;2022-08-20T23:12:41;2.97;;;2.20;;
72105;SDS011;59975;47.646;18.318;2022-08-20T23:15:07;3.47;;;1.73;;
72105;SDS011;59975;47.646;18.318;2022-08-20T23:20:56;3.17;;;1.90;;
72105;SDS011;59975;47.646;18.318;2022-08-20T23:23:25;4.53;;;1.77;;
72105;SDS011;59975;47.646;18.318;2022-08-20T23:25:52;3.38;;;1.95;;
72105;SDS011;59975;47.646;18.318;2022-08-20T23:28:19;2.53;;;1.88;;
72105;SDS011;59975;47.646;18.318;2022-08-20T23:30:47;2.80;;;1.70;;
72105;SDS011;59975;47.646;18.318;2022-08-20T23:33:13;2.20;;;1.50;;
72105;SDS011;59975;47.646;18.318;2022-08-20T23:35:39;3.17;;;2.10;;
72105;SDS011;59975;47.646;18.318;2022-08-20T23:38:06;3.47;;;1.88;;
72105;SDS011;59975;47.646;18.318;2022-08-20T23:40:32;4.03;;;1.75;;
72105;SDS011;59975;47.646;18.318;2022-08-20T23:42:59;2.92;;;1.60;;
72105;SDS011;59975;47.646;18.318;2022-08-20T23:45:26;2.40;;;1.80;;
72105;SDS011;59975;47.646;18.318;2022-08-20T23:47:53;2.60;;;1.90;;
72105;SDS011;59975;47.646;18.318;2022-08-20T23:50:21;2.92;;;1.95;;
72105;SDS011;59975;47.646;18.318;2022-08-20T23:52:48;2.75;;;1.90;;
72105;SDS011;59975;47.646;18.318;2022-08-20T23:58:36;2.97;;;2.03;;
